Time;durP1;ratioP1;P1;durP2;ratioP2;P2;SDS_P1;SDS_P2;PMS_P1;PMS_P2;Temp;Humidity;BMP_temperature;BMP_pressure;BME280_temperature;BME280_humidity;BME280_pressure;Samples;Min_cycle;Max_cycle;Signal;HPM_P1;HPM_P2
2022/06/24 00:02:20;;;;;;;20.27;5.30;;;;;;;;;;5054551;28;20178;-42
2022/06/24 00:04:54;;;;;;;15.17;4.57;;;;;;;;;;5052028;28;20171;-42
2022/06/24 00:07:20;;;;;;;19.87;5.50;;;;;;;;;;5053421;28;20480;-42
2022/06/24 00:09:47;;;;;;;20.30;4.87;;;;;;;;;;5046668;28;20700;-42
2022/06/24 00:12:14;;;;;;;14.07;4.77;;;;;;;;;;5054968;28;20624;-42
2022/06/24 00:14:42;;;;;;;17.53;5.30;;;;;;;;;;5044350;28;20642;-40
2022/06/24 00:17:09;;;;;;;21.90;5.57;;;;;;;;;;5046069;28;20905;-42
2022/06/24 00:19:36;;;;;;;18.37;5.33;;;;;;;;;;5043225;28;20179;-41
2022/06/24 00:22:09;;;;;;;19.23;4.97;;;;;;;;;;5046164;28;20174;-42
2022/06/24 00:24:37;;;;;;;13.67;4.70;;;;;;;;;;5049824;28;20177;-42
2022/06/24 00:27:04;;;;;;;18.50;4.67;;;;;;;;;;5051559;28;20187;-42
2022/06/24 00:29:31;;;;;;;21.17;4.63;;;;;;;;;;5049343;28;20379;-42
2022/06/24 00:32:01;;;;;;;21.07;5.60;;;;;;;;;;5049120;28;20587;-42
2022/06/24 00:34:27;;;;;;;14.40;4.73;;;;;;;;;;5048598;28;20179;-42
2022/06/24 00:36:53;;;;;;;15.93;5.50;;;;;;;;;;5052351;28;20954;-42
2022/06/24 00:39:19;;;;;;;14.73;4.63;;;;;;;;;;5050608;28;20175;-43
2022/06/24 00:41:50;;;;;;;19.03;5.60;;;;;;;;;;5046525;28;20390;-42
2022/06/24 00:44:18;;;;;;;26.10;5.53;;;;;;;;;;5052010;28;20379;-42
2022/06/24 00:46:46;;;;;;;20.20;4.77;;;;;;;;;;5048516;28;20182;-42
2022/06/24 00:49:15;;;;;;;25.97;6.30;;;;;;;;;;5048905;28;20175;-43
2022/06/24 00:51:42;;;;;;;15.67;4.80;;;;;;;;;;5048207;28;20773;-42
2022/06/24 00:54:12;;;;;;;20.23;4.80;;;;;;;;;;5050624;28;20611;-42
2022/06/24 00:56:38;;;;;;;21.97;5.47;;;;;;;;;;5054911;28;20954;-41
2022/06/24 00:59:08;;;;;;;17.80;5.20;;;;;;;;;;5052740;28;20775;-41
2022/06/24 01:01:35;;;;;;;19.47;4.97;;;;;;;;;;5051115;28;20937;-42
2022/06/24 01:04:02;;;;;;;14.00;4.47;;;;;;;;;;5050237;28;20194;-41
2022/06/24 01:06:29;;;;;;;20.63;5.37;;;;;;;;;;5051433;28;20182;-41
2022/06/24 01:08:55;;;;;;;22.50;6.40;;;;;;;;;;5050567;28;20288;-42
2022/06/24 01:11:25;;;;;;;23.97;6.33;;;;;;;;;;5044691;28;20183;-42
2022/06/24 01:13:52;;;;;;;18.90;5.40;;;;;;;;;;5054238;28;20239;-41
2022/06/24 01:16:21;;;;;;;19.90;5.83;;;;;;;;;;5052473;28;20449;-42
2022/06/24 01:18:49;;;;;;;25.73;6.07;;;;;;;;;;5048809;28;20214;-42
2022/06/24 01:21:36;;;;;;;16.07;5.40;;;;;;;;;;5053699;28;20179;-42
2022/06/24 01:24:15;;;;;;;17.30;4.83;;;;;;;;;;5034102;28;20419;-43
2022/06/24 01:26:42;;;;;;;18.53;6.10;;;;;;;;;;5049916;28;20205;-41
2022/06/24 01:29:09;;;;;;;22.90;5.70;;;;;;;;;;5046559;28;21056;-42
2022/06/24 01:31:38;;;;;;;20.83;5.50;;;;;;;;;;5048643;28;20199;-42
2022/06/24 01:34:04;;;;;;;20.27;5.63;;;;;;;;;;5046566;28;20658;-42
2022/06/24 01:36:30;;;;;;;15.30;5.80;;;;;;;;;;5045376;28;20202;-42
2022/06/24 01:38:56;;;;;;;15.43;5.07;;;;;;;;;;5050288;28;20569;-41
2022/06/24 01:41:23;;;;;;;14.73;4.87;;;;;;;;;;5048764;28;20182;-42
2022/06/24 01:43:49;;;;;;;17.30;5.43;;;;;;;;;;5045788;28;20795;-43
2022/06/24 01:46:15;;;;;;;15.93;5.13;;;;;;;;;;5049691;28;20179;-42
2022/06/24 01:48:41;;;;;;;24.47;6.40;;;;;;;;;;5049016;28;20182;-42
2022/06/24 01:51:08;;;;;;;23.00;6.00;;;;;;;;;;5046311;28;20218;-42
2022/06/24 01:53:35;;;;;;;17.07;5.27;;;;;;;;;;5050405;28;20262;-44
2022/06/24 01:56:01;;;;;;;23.73;5.97;;;;;;;;;;5047944;28;20187;-43
2022/06/24 01:58:27;;;;;;;17.13;5.80;;;;;;;;;;5052116;28;20237;-42
2022/06/24 02:00:53;;;;;;;21.17;5.27;;;;;;;;;;5043133;28;20214;-42
2022/06/24 02:03:19;;;;;;;15.90;5.53;;;;;;;;;;5044511;28;20174;-43
2022/06/24 02:05:46;;;;;;;26.10;5.80;;;;;;;;;;5048060;28;20178;-43
2022/06/24 02:08:13;;;;;;;16.13;5.23;;;;;;;;;;5052600;28;20179;-43
2022/06/24 02:13:27;;;;;;;18.87;5.53;;;;;;;;;;5047393;28;20248;-42
2022/06/24 02:15:58;;;;;;;17.73;5.13;;;;;;;;;;5051241;28;20202;-43
2022/06/24 02:18:24;;;;;;;17.87;6.17;;;;;;;;;;5045391;28;20202;-43
2022/06/24 02:20:51;;;;;;;14.90;5.67;;;;;;;;;;5041573;28;20569;-43
2022/06/24 02:23:18;;;;;;;18.40;5.43;;;;;;;;;;5046109;28;20167;-43
2022/06/24 02:25:45;;;;;;;17.83;5.30;;;;;;;;;;5049826;28;20720;-43
2022/06/24 02:28:11;;;;;;;18.00;4.80;;;;;;;;;;5050538;28;20187;-42
2022/06/24 02:30:38;;;;;;;16.23;5.63;;;;;;;;;;5046776;28;20351;-43
2022/06/24 02:33:04;;;;;;;19.07;5.33;;;;;;;;;;5051548;28;20902;-43
2022/06/24 02:35:30;;;;;;;14.60;4.90;;;;;;;;;;5045412;28;20346;-43
2022/06/24 02:37:56;;;;;;;22.17;6.37;;;;;;;;;;5049674;28;20622;-42
2022/06/24 02:43:18;;;;;;;20.80;6.17;;;;;;;;;;5049546;28;20289;-43
2022/06/24 02:45:48;;;;;;;21.17;5.97;;;;;;;;;;5051895;28;20691;-41
2022/06/24 02:48:15;;;;;;;21.17;6.10;;;;;;;;;;5054378;28;21411;-43
2022/06/24 02:50:42;;;;;;;19.73;6.17;;;;;;;;;;5050472;28;21009;-42
2022/06/24 02:53:09;;;;;;;12.60;5.00;;;;;;;;;;5052326;28;20183;-43
2022/06/24 02:55:36;;;;;;;19.20;5.87;;;;;;;;;;5054922;28;21291;-43
2022/06/24 02:58:02;;;;;;;21.20;6.63;;;;;;;;;;5052261;28;20202;-41
2022/06/24 03:00:28;;;;;;;23.77;6.57;;;;;;;;;;5048524;28;20201;-43
2022/06/24 03:02:54;;;;;;;21.23;6.40;;;;;;;;;;5052349;28;20197;-42
2022/06/24 03:05:20;;;;;;;18.20;5.80;;;;;;;;;;5053865;28;20176;-43
2022/06/24 03:07:46;;;;;;;18.27;6.50;;;;;;;;;;5051163;28;20179;-43
2022/06/24 03:10:12;;;;;;;26.07;6.27;;;;;;;;;;5049980;28;20734;-43
2022/06/24 03:12:39;;;;;;;20.87;6.13;;;;;;;;;;5050536;28;20178;-42
2022/06/24 03:15:05;;;;;;;22.10;7.37;;;;;;;;;;5050616;28;21026;-42
2022/06/24 03:17:31;;;;;;;22.40;7.83;;;;;;;;;;5051927;28;21187;-42
2022/06/24 03:19:57;;;;;;;29.00;8.23;;;;;;;;;;5048771;28;20752;-42
2022/06/24 03:22:23;;;;;;;25.30;8.23;;;;;;;;;;5049718;28;20265;-43
2022/06/24 03:24:50;;;;;;;33.50;8.73;;;;;;;;;;5051484;28;20280;-43
2022/06/24 03:27:16;;;;;;;29.80;9.03;;;;;;;;;;5049619;28;20673;-43
2022/06/24 03:29:42;;;;;;;28.90;8.40;;;;;;;;;;5050895;28;20186;-42
2022/06/24 03:32:08;;;;;;;25.83;8.50;;;;;;;;;;5046924;28;20638;-43
2022/06/24 03:34:34;;;;;;;34.73;8.83;;;;;;;;;;5051433;28;20503;-43
2022/06/24 03:37:00;;;;;;;23.37;7.93;;;;;;;;;;5049677;28;20205;-43
2022/06/24 03:39:27;;;;;;;25.40;7.90;;;;;;;;;;5053329;28;21010;-43
2022/06/24 03:41:53;;;;;;;23.73;7.90;;;;;;;;;;5054447;28;20186;-43
2022/06/24 03:44:19;;;;;;;30.60;8.90;;;;;;;;;;5051441;28;20674;-42
2022/06/24 03:46:45;;;;;;;22.87;7.73;;;;;;;;;;5050821;28;20179;-43
2022/06/24 03:49:11;;;;;;;24.90;7.43;;;;;;;;;;5035082;28;20548;-43
2022/06/24 03:51:37;;;;;;;23.60;8.87;;;;;;;;;;5045151;28;20263;-43
2022/06/24 03:54:03;;;;;;;21.63;8.10;;;;;;;;;;5045570;28;20175;-42
2022/06/24 03:56:29;;;;;;;24.57;7.60;;;;;;;;;;5043648;28;20211;-42
2022/06/24 03:58:55;;;;;;;25.40;8.30;;;;;;;;;;5043811;28;20207;-43
2022/06/24 04:01:21;;;;;;;24.93;8.83;;;;;;;;;;5050296;28;20186;-42
2022/06/24 04:03:47;;;;;;;28.90;8.07;;;;;;;;;;5046244;28;20187;-42
2022/06/24 04:06:14;;;;;;;27.97;9.00;;;;;;;;;;5052389;28;20218;-43
2022/06/24 04:08:40;;;;;;;28.23;8.73;;;;;;;;;;5051537;28;20857;-43
2022/06/24 04:11:12;;;;;;;27.57;9.20;;;;;;;;;;5052847;28;20256;-43
2022/06/24 04:13:38;;;;;;;25.73;8.40;;;;;;;;;;5052502;28;20214;-43
2022/06/24 04:16:05;;;;;;;20.93;8.03;;;;;;;;;;5050792;28;20189;-43
2022/06/24 04:18:31;;;;;;;19.97;7.60;;;;;;;;;;5046296;28;20210;-43
2022/06/24 04:20:57;;;;;;;30.73;8.40;;;;;;;;;;5049808;28;20553;-42
2022/06/24 04:23:23;;;;;;;25.13;7.83;;;;;;;;;;5052061;28;20290;-43
2022/06/24 04:25:50;;;;;;;21.97;8.20;;;;;;;;;;5052483;28;20171;-43
2022/06/24 04:28:16;;;;;;;16.30;7.27;;;;;;;;;;5053299;28;20921;-43
2022/06/24 04:30:42;;;;;;;18.73;6.53;;;;;;;;;;5054805;28;20278;-43
2022/06/24 04:33:09;;;;;;;30.80;7.50;;;;;;;;;;5058636;28;20186;-42
2022/06/24 04:35:35;;;;;;;24.97;8.00;;;;;;;;;;5055918;28;20193;-42
2022/06/24 04:38:01;;;;;;;21.30;7.53;;;;;;;;;;5055066;28;20704;-43
2022/06/24 04:40:27;;;;;;;22.80;7.80;;;;;;;;;;5053682;28;20301;-42
2022/06/24 04:42:53;;;;;;;30.80;8.60;;;;;;;;;;5053701;28;20171;-43
2022/06/24 04:45:19;;;;;;;25.27;8.00;;;;;;;;;;5057047;28;20210;-43
2022/06/24 04:47:45;;;;;;;23.80;8.10;;;;;;;;;;5044546;28;20185;-43
2022/06/24 04:50:12;;;;;;;27.27;7.87;;;;;;;;;;5051749;28;20598;-43
2022/06/24 04:52:38;;;;;;;21.13;7.00;;;;;;;;;;5053948;28;20646;-42
2022/06/24 04:55:06;;;;;;;30.83;7.90;;;;;;;;;;5050940;28;20189;-42
2022/06/24 04:57:32;;;;;;;21.00;7.40;;;;;;;;;;5055567;28;20195;-43
2022/06/24 04:59:58;;;;;;;29.37;8.10;;;;;;;;;;5053452;28;20179;-43
2022/06/24 05:02:24;;;;;;;25.17;7.70;;;;;;;;;;5048990;28;20692;-42
2022/06/24 05:04:50;;;;;;;27.83;7.97;;;;;;;;;;5052435;28;20171;-43
2022/06/24 05:07:16;;;;;;;28.33;7.80;;;;;;;;;;5051447;28;20171;-42
2022/06/24 05:09:43;;;;;;;31.10;7.80;;;;;;;;;;5049609;28;20730;-43
2022/06/24 05:12:09;;;;;;;24.53;7.50;;;;;;;;;;5047173;28;20363;-42
2022/06/24 05:14:35;;;;;;;22.30;7.93;;;;;;;;;;5042356;28;20266;-43
2022/06/24 05:17:01;;;;;;;19.03;7.70;;;;;;;;;;5047949;28;20217;-43
2022/06/24 05:19:28;;;;;;;24.73;8.07;;;;;;;;;;5050372;28;20501;-43
2022/06/24 05:21:54;;;;;;;24.43;7.07;;;;;;;;;;5048683;28;20167;-43
2022/06/24 05:24:22;;;;;;;21.17;7.73;;;;;;;;;;5052716;28;21153;-42
2022/06/24 05:26:48;;;;;;;25.63;8.07;;;;;;;;;;5052639;28;20170;-43
2022/06/24 05:29:14;;;;;;;27.00;7.30;;;;;;;;;;5049586;28;20186;-42
2022/06/24 05:31:40;;;;;;;26.27;7.83;;;;;;;;;;5051488;28;20175;-43
2022/06/24 05:34:09;;;;;;;25.77;8.03;;;;;;;;;;5055971;28;20185;-43
2022/06/24 05:36:35;;;;;;;23.47;7.57;;;;;;;;;;5053910;28;20735;-42
2022/06/24 05:39:02;;;;;;;24.77;7.70;;;;;;;;;;5047596;28;21181;-43
2022/06/24 05:41:29;;;;;;;29.90;7.73;;;;;;;;;;5057311;28;20239;-43
2022/06/24 05:43:55;;;;;;;24.67;7.43;;;;;;;;;;5054150;28;20711;-42
2022/06/24 05:46:21;;;;;;;22.03;7.17;;;;;;;;;;5050852;28;20714;-42
2022/06/24 05:48:47;;;;;;;23.60;7.43;;;;;;;;;;5056435;28;20910;-43
2022/06/24 05:51:15;;;;;;;23.23;7.00;;;;;;;;;;5075324;28;20179;-43
2022/06/24 05:56:27;;;;;;;23.60;6.77;;;;;;;;;;5059293;28;20181;-42
2022/06/24 05:58:53;;;;;;;29.83;8.10;;;;;;;;;;5057387;28;20214;-41
2022/06/24 06:01:19;;;;;;;25.37;7.60;;;;;;;;;;5054360;28;20974;-43
2022/06/24 06:03:47;;;;;;;24.17;6.60;;;;;;;;;;5058043;28;20174;-42
2022/06/24 06:06:13;;;;;;;24.73;6.43;;;;;;;;;;5059144;28;20297;-43
2022/06/24 06:08:39;;;;;;;21.57;5.93;;;;;;;;;;5050651;28;20614;-43
2022/06/24 06:11:13;;;;;;;19.83;6.30;;;;;;;;;;5050278;28;20487;-42
2022/06/24 06:13:40;;;;;;;21.97;5.77;;;;;;;;;;5051499;28;20175;-43
2022/06/24 06:16:06;;;;;;;24.60;6.30;;;;;;;;;;5058753;28;20191;-43
2022/06/24 06:18:32;;;;;;;23.63;5.93;;;;;;;;;;5064265;28;20198;-42
2022/06/24 06:21:01;;;;;;;19.37;5.50;;;;;;;;;;5060009;28;20536;-44
2022/06/24 06:23:30;;;;;;;20.10;5.30;;;;;;;;;;5062152;28;20171;-43
2022/06/24 06:25:57;;;;;;;17.87;4.50;;;;;;;;;;5058779;28;20273;-42
2022/06/24 06:28:23;;;;;;;17.17;5.07;;;;;;;;;;5054689;28;20301;-43
2022/06/24 06:30:49;;;;;;;16.50;4.20;;;;;;;;;;5055334;28;20185;-43
2022/06/24 06:33:15;;;;;;;24.03;5.90;;;;;;;;;;5043351;28;20860;-43
2022/06/24 06:35:41;;;;;;;20.40;5.33;;;;;;;;;;5048454;28;20765;-43
2022/06/24 06:38:07;;;;;;;21.00;5.37;;;;;;;;;;5057699;28;20631;-43
2022/06/24 06:40:37;;;;;;;17.17;5.17;;;;;;;;;;5053722;28;20687;-43
2022/06/24 06:43:05;;;;;;;19.83;4.53;;;;;;;;;;5056547;28;20167;-42
2022/06/24 06:45:32;;;;;;;19.03;5.30;;;;;;;;;;5060682;28;20175;-43
2022/06/24 06:47:58;;;;;;;14.17;4.80;;;;;;;;;;5054529;28;20723;-43
2022/06/24 06:50:24;;;;;;;17.93;4.87;;;;;;;;;;5051125;28;20229;-43
2022/06/24 06:52:51;;;;;;;18.07;5.00;;;;;;;;;;5058001;28;20823;-43
2022/06/24 06:55:17;;;;;;;20.53;5.50;;;;;;;;;;5056217;28;20179;-43
2022/06/24 06:57:43;;;;;;;15.73;4.60;;;;;;;;;;5056451;28;20210;-42
2022/06/24 07:00:10;;;;;;;22.10;5.53;;;;;;;;;;5061011;28;20752;-43
2022/06/24 07:02:36;;;;;;;17.10;5.10;;;;;;;;;;5056147;28;20172;-43
2022/06/24 07:05:03;;;;;;;16.70;4.43;;;;;;;;;;5059741;28;20515;-43
2022/06/24 07:07:29;;;;;;;18.57;4.90;;;;;;;;;;5056703;28;20256;-43
2022/06/24 07:09:55;;;;;;;19.00;4.43;;;;;;;;;;5056326;28;20589;-43
2022/06/24 07:12:21;;;;;;;20.97;4.93;;;;;;;;;;5055690;28;20544;-43
2022/06/24 07:14:47;;;;;;;23.63;4.97;;;;;;;;;;5061510;28;20348;-43
2022/06/24 07:17:13;;;;;;;19.93;4.53;;;;;;;;;;5057488;28;20171;-42
2022/06/24 07:19:40;;;;;;;16.80;4.87;;;;;;;;;;5054934;28;20174;-43
2022/06/24 07:22:06;;;;;;;18.83;5.33;;;;;;;;;;5052276;28;20202;-43
2022/06/24 07:24:32;;;;;;;15.20;4.07;;;;;;;;;;5054777;28;20207;-43
2022/06/24 07:26:58;;;;;;;19.27;4.40;;;;;;;;;;5054827;28;21069;-43
2022/06/24 07:29:24;;;;;;;21.17;4.57;;;;;;;;;;5057022;28;20908;-43
2022/06/24 07:31:50;;;;;;;16.37;4.53;;;;;;;;;;5053807;28;20240;-43
2022/06/24 07:34:16;;;;;;;17.83;4.20;;;;;;;;;;5057183;28;20643;-43
2022/06/24 07:36:42;;;;;;;16.70;4.47;;;;;;;;;;5058361;28;21210;-43
2022/06/24 07:39:09;;;;;;;17.10;4.97;;;;;;;;;;5057624;28;20513;-43
2022/06/24 07:41:35;;;;;;;16.10;4.73;;;;;;;;;;5052487;28;20762;-43
2022/06/24 07:44:01;;;;;;;17.87;4.53;;;;;;;;;;5057958;28;20177;-43
2022/06/24 07:46:28;;;;;;;20.47;4.80;;;;;;;;;;5056505;28;20487;-43
2022/06/24 07:48:54;;;;;;;16.67;4.40;;;;;;;;;;5059277;28;20213;-43
2022/06/24 07:51:21;;;;;;;19.17;4.73;;;;;;;;;;5049936;28;20179;-43
2022/06/24 07:53:48;;;;;;;20.33;4.90;;;;;;;;;;5047644;28;20734;-41
2022/06/24 07:59:00;;;;;;;17.77;4.00;;;;;;;;;;5055034;28;20223;-43
2022/06/24 08:01:26;;;;;;;19.90;4.50;;;;;;;;;;5054808;28;20189;-43
2022/06/24 08:03:52;;;;;;;15.20;4.17;;;;;;;;;;5055723;28;20678;-42
2022/06/24 08:06:18;;;;;;;19.80;4.20;;;;;;;;;;5054049;28;20179;-43
2022/06/24 08:08:44;;;;;;;16.87;4.27;;;;;;;;;;5053731;28;20178;-43
2022/06/24 08:11:11;;;;;;;17.40;4.47;;;;;;;;;;5052266;28;20277;-43
2022/06/24 08:13:37;;;;;;;18.03;4.23;;;;;;;;;;5058682;28;21153;-43
2022/06/24 08:16:03;;;;;;;20.33;4.53;;;;;;;;;;5054501;28;20797;-43
2022/06/24 08:18:29;;;;;;;14.90;4.47;;;;;;;;;;5052351;28;20488;-43
2022/06/24 08:20:55;;;;;;;17.23;4.03;;;;;;;;;;5049808;28;21216;-43
2022/06/24 08:23:21;;;;;;;16.13;3.63;;;;;;;;;;5055668;28;21053;-43
2022/06/24 08:25:47;;;;;;;15.03;4.37;;;;;;;;;;5052293;28;20185;-43
2022/06/24 08:28:13;;;;;;;18.70;4.67;;;;;;;;;;5057349;28;20175;-43
2022/06/24 08:30:39;;;;;;;17.50;4.20;;;;;;;;;;5058020;28;20406;-43
2022/06/24 08:33:06;;;;;;;17.27;3.80;;;;;;;;;;5051868;28;20191;-43
2022/06/24 08:35:32;;;;;;;15.13;3.40;;;;;;;;;;5053113;28;20191;-43
2022/06/24 08:37:59;;;;;;;13.40;3.60;;;;;;;;;;5054117;28;20590;-42
2022/06/24 08:40:26;;;;;;;14.43;3.20;;;;;;;;;;5057543;28;20194;-43
2022/06/24 08:42:53;;;;;;;13.50;3.80;;;;;;;;;;5053581;28;20625;-42
2022/06/24 08:45:19;;;;;;;10.83;3.30;;;;;;;;;;5052455;28;20307;-43
2022/06/24 08:47:49;;;;;;;13.30;3.53;;;;;;;;;;5053067;28;20594;-43
2022/06/24 08:50:15;;;;;;;11.50;2.80;;;;;;;;;;5047892;28;20175;-43
2022/06/24 08:52:46;;;;;;;12.63;3.60;;;;;;;;;;5049569;28;20190;-43
2022/06/24 08:55:15;;;;;;;15.33;3.43;;;;;;;;;;5054310;28;20174;-43
2022/06/24 08:57:41;;;;;;;12.70;3.57;;;;;;;;;;5051794;28;20788;-43
2022/06/24 09:00:08;;;;;;;10.90;3.10;;;;;;;;;;5045245;28;20171;-43
2022/06/24 09:02:34;;;;;;;12.70;2.87;;;;;;;;;;5047214;28;20194;-43
2022/06/24 09:05:00;;;;;;;8.67;2.97;;;;;;;;;;5050129;28;20217;-43
2022/06/24 09:07:27;;;;;;;10.60;2.73;;;;;;;;;;5043139;28;20844;-43
2022/06/24 09:09:59;;;;;;;10.30;2.80;;;;;;;;;;5050823;28;20611;-43
2022/06/24 09:12:29;;;;;;;10.87;2.43;;;;;;;;;;5050984;28;20190;-43
2022/06/24 09:14:56;;;;;;;7.40;2.47;;;;;;;;;;5052334;28;20306;-43
2022/06/24 09:17:29;;;;;;;11.17;3.00;;;;;;;;;;5056501;28;20190;-43
2022/06/24 09:20:18;;;;;;;9.77;2.57;;;;;;;;;;5053476;28;20243;-42
2022/06/24 09:22:44;;;;;;;10.53;2.77;;;;;;;;;;5053390;28;20189;-43
2022/06/24 09:25:11;;;;;;;11.13;2.73;;;;;;;;;;5054170;28;20171;-43
2022/06/24 09:27:42;;;;;;;11.63;2.47;;;;;;;;;;5056483;28;20185;-43
2022/06/24 09:30:08;;;;;;;9.70;2.70;;;;;;;;;;5051214;28;20229;-43
2022/06/24 09:32:35;;;;;;;6.40;2.57;;;;;;;;;;5060652;28;20766;-43
2022/06/24 09:35:10;;;;;;;8.50;2.03;;;;;;;;;;5055788;28;20186;-42
2022/06/24 09:37:39;;;;;;;7.63;2.33;;;;;;;;;;5055195;28;20837;-43
2022/06/24 09:40:14;;;;;;;9.13;2.57;;;;;;;;;;5053511;28;20292;-43
2022/06/24 09:42:40;;;;;;;11.40;2.47;;;;;;;;;;5058383;28;20723;-43
2022/06/24 09:45:07;;;;;;;8.80;2.57;;;;;;;;;;5053124;28;20476;-42
2022/06/24 09:47:39;;;;;;;11.43;2.50;;;;;;;;;;5056391;28;20187;-43
2022/06/24 09:50:05;;;;;;;9.63;2.37;;;;;;;;;;5054455;28;20648;-43
2022/06/24 09:52:32;;;;;;;8.73;2.10;;;;;;;;;;5054797;28;20180;-42
2022/06/24 09:54:58;;;;;;;9.97;2.50;;;;;;;;;;5055122;28;20258;-43
2022/06/24 09:57:24;;;;;;;12.30;2.70;;;;;;;;;;5060682;28;20184;-43
2022/06/24 10:02:36;;;;;;;12.47;2.63;;;;;;;;;;5060821;28;20202;-42
2022/06/24 10:05:02;;;;;;;9.60;2.40;;;;;;;;;;5049429;28;20187;-43
2022/06/24 10:07:31;;;;;;;7.57;2.63;;;;;;;;;;5059115;28;20187;-43
2022/06/24 10:09:57;;;;;;;9.70;2.23;;;;;;;;;;5054068;28;20172;-42
2022/06/24 10:12:24;;;;;;;7.20;2.03;;;;;;;;;;5054051;28;20629;-42
2022/06/24 10:14:51;;;;;;;8.77;2.00;;;;;;;;;;5049730;28;20723;-43
2022/06/24 10:17:17;;;;;;;6.53;2.20;;;;;;;;;;5057209;28;20634;-43
2022/06/24 10:19:45;;;;;;;8.97;2.50;;;;;;;;;;5055807;28;20294;-43
2022/06/24 10:22:31;;;;;;;8.47;2.30;;;;;;;;;;5057582;28;20253;-43
2022/06/24 10:24:57;;;;;;;7.83;2.17;;;;;;;;;;5052882;28;20605;-43
2022/06/24 10:27:43;;;;;;;5.90;2.00;;;;;;;;;;5057480;28;20177;-43
2022/06/24 10:30:10;;;;;;;6.97;1.97;;;;;;;;;;5054257;28;20288;-43
2022/06/24 10:32:36;;;;;;;7.93;1.80;;;;;;;;;;5049928;28;20599;-43
2022/06/24 10:35:06;;;;;;;4.87;1.63;;;;;;;;;;5047492;28;20704;-43
2022/06/24 10:37:33;;;;;;;6.03;1.83;;;;;;;;;;5049552;28;20211;-43
2022/06/24 10:40:00;;;;;;;7.67;1.90;;;;;;;;;;5057585;28;20177;-43
2022/06/24 10:42:29;;;;;;;4.33;1.37;;;;;;;;;;5057861;28;20179;-43
2022/06/24 10:44:56;;;;;;;5.90;1.90;;;;;;;;;;5058101;28;20183;-43
2022/06/24 10:47:22;;;;;;;5.47;1.53;;;;;;;;;;5058793;28;20203;-42
2022/06/24 10:49:54;;;;;;;5.83;2.00;;;;;;;;;;5057543;28;20187;-43
2022/06/24 10:52:35;;;;;;;7.13;2.10;;;;;;;;;;5056429;28;20862;-43
2022/06/24 10:57:43;;;;;;;6.40;1.60;;;;;;;;;;5056289;28;20305;-43
2022/06/24 11:00:13;;;;;;;7.40;1.87;;;;;;;;;;5060062;28;20176;-43
2022/06/24 11:02:39;;;;;;;4.87;1.73;;;;;;;;;;5055320;28;20238;-43
2022/06/24 11:05:09;;;;;;;7.87;1.77;;;;;;;;;;5056032;28;20581;-43
2022/06/24 11:07:43;;;;;;;6.93;1.60;;;;;;;;;;5057200;28;20195;-43
2022/06/24 11:10:15;;;;;;;4.97;1.60;;;;;;;;;;5056425;28;20176;-43
2022/06/24 11:12:42;;;;;;;8.17;1.90;;;;;;;;;;5057545;28;20274;-43
2022/06/24 11:15:08;;;;;;;8.43;1.93;;;;;;;;;;5057563;28;20195;-42
2022/06/24 11:17:40;;;;;;;3.40;1.60;;;;;;;;;;5058093;28;20210;-43
2022/06/24 11:20:07;;;;;;;5.47;1.63;;;;;;;;;;5060864;28;20513;-41
2022/06/24 11:22:42;;;;;;;6.30;1.73;;;;;;;;;;5056058;28;20206;-43
2022/06/24 11:25:09;;;;;;;5.30;2.33;;;;;;;;;;5058149;28;20178;-43
2022/06/24 11:27:36;;;;;;;5.97;1.90;;;;;;;;;;5059973;28;20172;-42
2022/06/24 11:30:03;;;;;;;8.00;2.00;;;;;;;;;;5056305;28;20293;-43
2022/06/24 11:32:29;;;;;;;6.50;1.87;;;;;;;;;;5055886;28;20192;-42
2022/06/24 11:34:55;;;;;;;7.43;2.10;;;;;;;;;;5059673;28;20211;-43
2022/06/24 11:37:22;;;;;;;9.30;2.10;;;;;;;;;;5055562;28;20297;-42
2022/06/24 11:39:53;;;;;;;8.60;2.40;;;;;;;;;;5055522;28;20174;-43
2022/06/24 11:42:19;;;;;;;7.07;2.10;;;;;;;;;;5057582;28;20175;-43
2022/06/24 11:44:45;;;;;;;5.00;1.93;;;;;;;;;;5060528;28;20291;-43
2022/06/24 11:47:11;;;;;;;7.80;2.17;;;;;;;;;;5054487;28;20999;-43
2022/06/24 11:49:42;;;;;;;7.37;2.13;;;;;;;;;;5058696;28;20184;-43
2022/06/24 11:52:08;;;;;;;4.80;1.63;;;;;;;;;;5059410;28;20528;-43
2022/06/24 11:54:34;;;;;;;7.37;2.03;;;;;;;;;;5059397;28;20181;-43
2022/06/24 11:57:01;;;;;;;7.60;1.80;;;;;;;;;;5055910;28;20956;-43
2022/06/24 11:59:27;;;;;;;7.57;1.90;;;;;;;;;;5053875;28;20196;-43
2022/06/24 12:01:53;;;;;;;6.20;1.70;;;;;;;;;;5059086;28;20311;-42
2022/06/24 12:04:23;;;;;;;6.77;1.90;;;;;;;;;;5057484;28;20844;-43
2022/06/24 12:06:50;;;;;;;6.63;1.90;;;;;;;;;;5055992;28;20762;-43
2022/06/24 12:09:16;;;;;;;7.57;1.80;;;;;;;;;;5062159;28;20193;-42
2022/06/24 12:11:43;;;;;;;7.17;2.20;;;;;;;;;;5057187;28;20177;-42
2022/06/24 12:14:18;;;;;;;4.67;1.50;;;;;;;;;;5052401;28;20483;-42
2022/06/24 12:16:54;;;;;;;9.00;1.73;;;;;;;;;;5056511;28;20579;-42
2022/06/24 12:19:20;;;;;;;5.47;1.80;;;;;;;;;;5057407;28;20212;-43
2022/06/24 12:21:47;;;;;;;11.17;1.67;;;;;;;;;;5053751;28;21177;-42
2022/06/24 12:24:19;;;;;;;6.87;1.73;;;;;;;;;;5057409;28;20207;-43
2022/06/24 12:26:45;;;;;;;4.87;1.60;;;;;;;;;;5056536;28;20195;-42
2022/06/24 12:29:11;;;;;;;4.80;1.70;;;;;;;;;;5057026;28;20620;-42
2022/06/24 12:31:38;;;;;;;7.70;1.90;;;;;;;;;;5058474;28;20190;-43
2022/06/24 12:34:04;;;;;;;5.60;1.90;;;;;;;;;;5057405;28;20184;-41
2022/06/24 12:36:35;;;;;;;5.17;1.80;;;;;;;;;;5054957;28;20183;-43
2022/06/24 12:39:01;;;;;;;4.90;2.10;;;;;;;;;;5054157;28;20586;-42
2022/06/24 12:41:27;;;;;;;5.57;1.60;;;;;;;;;;5056693;28;20180;-42
2022/06/24 12:43:58;;;;;;;7.73;1.93;;;;;;;;;;5043668;28;20215;-43
2022/06/24 12:46:26;;;;;;;6.37;1.70;;;;;;;;;;5054800;28;20358;-42
2022/06/24 12:51:57;;;;;;;6.13;2.03;;;;;;;;;;5033269;28;20491;-42
2022/06/24 12:54:23;;;;;;;8.73;2.00;;;;;;;;;;5028301;28;20181;-42
2022/06/24 12:56:49;;;;;;;5.20;1.87;;;;;;;;;;5040957;28;20194;-42
2022/06/24 12:59:16;;;;;;;7.63;1.70;;;;;;;;;;5056084;28;20571;-42
2022/06/24 13:01:44;;;;;;;4.40;1.70;;;;;;;;;;5053283;28;20204;-43
2022/06/24 13:04:10;;;;;;;8.80;1.77;;;;;;;;;;5056447;28;20222;-43
2022/06/24 13:06:37;;;;;;;8.40;2.20;;;;;;;;;;5055729;28;20174;-43
2022/06/24 13:09:04;;;;;;;7.33;2.00;;;;;;;;;;5056986;28;20238;-43
2022/06/24 13:11:30;;;;;;;7.00;1.80;;;;;;;;;;5056076;28;20179;-42
2022/06/24 13:13:56;;;;;;;4.70;1.80;;;;;;;;;;5052416;28;20735;-42
2022/06/24 13:16:23;;;;;;;6.43;1.97;;;;;;;;;;5056743;28;20221;-42
2022/06/24 13:18:49;;;;;;;7.63;1.73;;;;;;;;;;5058903;28;20204;-42
2022/06/24 13:21:15;;;;;;;5.07;1.60;;;;;;;;;;5056039;28;20623;-42
2022/06/24 13:23:41;;;;;;;5.13;1.50;;;;;;;;;;5054561;28;20263;-42
2022/06/24 13:26:07;;;;;;;6.07;1.60;;;;;;;;;;5054699;28;20637;-42
2022/06/24 13:28:33;;;;;;;6.93;1.57;;;;;;;;;;5057569;28;20179;-41
2022/06/24 13:31:00;;;;;;;6.93;1.80;;;;;;;;;;5053107;28;20213;-42
2022/06/24 13:33:26;;;;;;;5.47;2.03;;;;;;;;;;5051021;28;20183;-42
2022/06/24 13:35:52;;;;;;;7.77;1.80;;;;;;;;;;5053899;28;20221;-42
2022/06/24 13:38:19;;;;;;;6.17;1.90;;;;;;;;;;5052281;28;20198;-42
2022/06/24 13:40:45;;;;;;;11.93;2.10;;;;;;;;;;5053708;28;20503;-42
2022/06/24 13:43:11;;;;;;;10.80;1.70;;;;;;;;;;5055089;28;20177;-42
2022/06/24 13:45:37;;;;;;;8.73;1.60;;;;;;;;;;5058228;28;20180;-42
2022/06/24 13:48:06;;;;;;;6.77;1.73;;;;;;;;;;5052964;28;20286;-42
2022/06/24 13:50:33;;;;;;;12.57;2.00;;;;;;;;;;5050256;28;20185;-41
2022/06/24 13:53:00;;;;;;;8.67;1.93;;;;;;;;;;5047152;28;20534;-42
2022/06/24 13:55:26;;;;;;;7.20;1.80;;;;;;;;;;5046533;28;20495;-42
2022/06/24 13:57:52;;;;;;;6.07;1.70;;;;;;;;;;5053143;28;20207;-42
2022/06/24 14:00:18;;;;;;;6.17;1.63;;;;;;;;;;5052365;28;20545;-42
2022/06/24 14:02:45;;;;;;;7.73;1.70;;;;;;;;;;5049793;28;20441;-42
2022/06/24 14:05:11;;;;;;;5.40;1.87;;;;;;;;;;5053111;28;20458;-42
2022/06/24 14:07:37;;;;;;;8.03;1.63;;;;;;;;;;5054464;28;20608;-41
2022/06/24 14:10:03;;;;;;;6.70;1.40;;;;;;;;;;5053515;28;20512;-42
2022/06/24 14:12:29;;;;;;;5.13;1.33;;;;;;;;;;5054275;28;20484;-42
2022/06/24 14:14:55;;;;;;;11.03;2.37;;;;;;;;;;5056321;28;20238;-42
2022/06/24 14:17:22;;;;;;;12.43;1.73;;;;;;;;;;5057361;28;20215;-42
2022/06/24 14:19:48;;;;;;;5.30;1.50;;;;;;;;;;5051159;28;20768;-42
2022/06/24 14:22:14;;;;;;;7.07;1.63;;;;;;;;;;5054727;28;20172;-42
2022/06/24 14:24:40;;;;;;;6.33;1.83;;;;;;;;;;5061790;28;20214;-41
2022/06/24 14:27:07;;;;;;;4.80;2.00;;;;;;;;;;5056453;28;20294;-41
2022/06/24 14:29:34;;;;;;;6.90;1.77;;;;;;;;;;5052053;28;21098;-41
2022/06/24 14:32:00;;;;;;;6.67;1.87;;;;;;;;;;5055169;28;20211;-42
2022/06/24 14:34:27;;;;;;;12.50;1.90;;;;;;;;;;5056509;28;20267;-42
2022/06/24 14:36:53;;;;;;;9.50;1.80;;;;;;;;;;5053783;28;20272;-42
2022/06/24 14:42:07;;;;;;;12.50;1.60;;;;;;;;;;5059210;28;20292;-43
2022/06/24 14:44:34;;;;;;;13.33;1.87;;;;;;;;;;5056884;28;21364;-41
2022/06/24 14:47:04;;;;;;;5.37;1.40;;;;;;;;;;5059110;28;21041;-41
2022/06/24 14:49:31;;;;;;;9.53;2.10;;;;;;;;;;5063538;28;20175;-42
2022/06/24 14:51:57;;;;;;;9.50;2.00;;;;;;;;;;5059592;28;20186;-42
2022/06/24 14:54:24;;;;;;;10.23;1.83;;;;;;;;;;5058934;28;20850;-42
2022/06/24 14:56:50;;;;;;;12.00;1.83;;;;;;;;;;5058275;28;20210;-41